sensor_id;sensor_type;location;lat;lon;timestamp;P1;durP1;ratioP1;P2;durP2;ratioP2
20725;SDS011;10524;48.132;8.518;2023-04-15T00:01:20;12.75;;;7.55;;
20725;SDS011;10524;48.132;8.518;2023-04-15T00:03:46;14.10;;;7.95;;
20725;SDS011;10524;48.132;8.518;2023-04-15T00:06:12;15.00;;;8.43;;
20725;SDS011;10524;48.132;8.518;2023-04-15T00:08:38;12.90;;;7.22;;
20725;SDS011;10524;48.132;8.518;2023-04-15T00:11:04;16.20;;;8.45;;
20725;SDS011;10524;48.132;8.518;2023-04-15T00:13:32;11.88;;;6.90;;
20725;SDS011;10524;48.132;8.518;2023-04-15T00:16:00;10.98;;;5.60;;
20725;SDS011;10524;48.132;8.518;2023-04-15T00:18:26;10.27;;;5.60;;
20725;SDS011;10524;48.132;8.518;2023-04-15T00:20:53;9.80;;;5.32;;
20725;SDS011;10524;48.132;8.518;2023-04-15T00:23:19;6.65;;;4.53;;
20725;SDS011;10524;48.132;8.518;2023-04-15T00:25:44;9.30;;;5.35;;
20725;SDS011;10524;48.132;8.518;2023-04-15T00:28:11;7.93;;;4.60;;
20725;SDS011;10524;48.132;8.518;2023-04-15T00:30:36;8.25;;;5.25;;
20725;SDS011;10524;48.132;8.518;2023-04-15T00:33:02;10.88;;;4.97;;
20725;SDS011;10524;48.132;8.518;2023-04-15T00:35:28;10.85;;;4.45;;
20725;SDS011;10524;48.132;8.518;2023-04-15T00:37:56;8.15;;;4.28;;
20725;SDS011;10524;48.132;8.518;2023-04-15T00:40:22;9.63;;;4.60;;
20725;SDS011;10524;48.132;8.518;2023-04-15T00:42:48;8.55;;;4.35;;
20725;SDS011;10524;48.132;8.518;2023-04-15T00:45:14;7.93;;;4.63;;
20725;SDS011;10524;48.132;8.518;2023-04-15T00:47:40;8.75;;;4.72;;
20725;SDS011;10524;48.132;8.518;2023-04-15T00:50:08;10.45;;;5.28;;
20725;SDS011;10524;48.132;8.518;2023-04-15T00:52:35;8.45;;;5.85;;
20725;SDS011;10524;48.132;8.518;2023-04-15T00:55:01;9.43;;;5.25;;
20725;SDS011;10524;48.132;8.518;2023-04-15T00:57:28;9.80;;;5.25;;
20725;SDS011;10524;48.132;8.518;2023-04-15T00:59:54;10.73;;;5.45;;
20725;SDS011;10524;48.132;8.518;2023-04-15T01:02:20;10.48;;;4.70;;
20725;SDS011;10524;48.132;8.518;2023-04-15T01:04:47;9.93;;;5.38;;
20725;SDS011;10524;48.132;8.518;2023-04-15T01:07:13;8.35;;;5.13;;
20725;SDS011;10524;48.132;8.518;2023-04-15T01:09:39;8.13;;;4.90;;
20725;SDS011;10524;48.132;8.518;2023-04-15T01:12:06;10.07;;;4.90;;
20725;SDS011;10524;48.132;8.518;2023-04-15T01:14:34;6.70;;;4.63;;
20725;SDS011;10524;48.132;8.518;2023-04-15T01:17:01;9.10;;;4.55;;
20725;SDS011;10524;48.132;8.518;2023-04-15T01:19:27;8.57;;;4.10;;
20725;SDS011;10524;48.132;8.518;2023-04-15T01:21:52;11.27;;;3.90;;
20725;SDS011;10524;48.132;8.518;2023-04-15T01:24:18;7.43;;;4.78;;
20725;SDS011;10524;48.132;8.518;2023-04-15T01:26:44;7.38;;;4.85;;
20725;SDS011;10524;48.132;8.518;2023-04-15T01:29:10;8.55;;;4.47;;
20725;SDS011;10524;48.132;8.518;2023-04-15T01:31:37;7.85;;;4.68;;
20725;SDS011;10524;48.132;8.518;2023-04-15T01:34:02;7.93;;;4.32;;
20725;SDS011;10524;48.132;8.518;2023-04-15T01:36:28;8.18;;;4.25;;
20725;SDS011;10524;48.132;8.518;2023-04-15T01:38:55;10.10;;;4.43;;
20725;SDS011;10524;48.132;8.518;2023-04-15T01:41:24;11.65;;;4.55;;
20725;SDS011;10524;48.132;8.518;2023-04-15T01:43:51;7.90;;;5.05;;
20725;SDS011;10524;48.132;8.518;2023-04-15T01:46:17;7.15;;;4.72;;
20725;SDS011;10524;48.132;8.518;2023-04-15T01:48:42;7.13;;;4.50;;
20725;SDS011;10524;48.132;8.518;2023-04-15T01:51:08;9.45;;;5.10;;
20725;SDS011;10524;48.132;8.518;2023-04-15T01:53:34;8.30;;;4.78;;
20725;SDS011;10524;48.132;8.518;2023-04-15T01:55:59;8.10;;;4.80;;
20725;SDS011;10524;48.132;8.518;2023-04-15T01:58:25;8.52;;;4.60;;
20725;SDS011;10524;48.132;8.518;2023-04-15T02:00:51;10.52;;;5.60;;
20725;SDS011;10524;48.132;8.518;2023-04-15T02:03:16;8.25;;;4.47;;
20725;SDS011;10524;48.132;8.518;2023-04-15T02:05:42;10.63;;;5.22;;
20725;SDS011;10524;48.132;8.518;2023-04-15T02:08:08;8.55;;;4.30;;
20725;SDS011;10524;48.132;8.518;2023-04-15T02:10:33;9.05;;;4.75;;
20725;SDS011;10524;48.132;8.518;2023-04-15T02:12:59;10.23;;;4.55;;
20725;SDS011;10524;48.132;8.518;2023-04-15T02:15:25;6.57;;;4.50;;
20725;SDS011;10524;48.132;8.518;2023-04-15T02:17:51;6.45;;;3.85;;
20725;SDS011;10524;48.132;8.518;2023-04-15T02:20:19;8.70;;;4.53;;
20725;SDS011;10524;48.132;8.518;2023-04-15T02:22:45;7.88;;;4.32;;
20725;SDS011;10524;48.132;8.518;2023-04-15T02:25:12;8.63;;;4.30;;
20725;SDS011;10524;48.132;8.518;2023-04-15T02:27:38;8.18;;;4.38;;
20725;SDS011;10524;48.132;8.518;2023-04-15T02:30:04;7.85;;;4.40;;
20725;SDS011;10524;48.132;8.518;2023-04-15T02:32:31;7.80;;;4.93;;
20725;SDS011;10524;48.132;8.518;2023-04-15T02:35:01;11.43;;;4.10;;
20725;SDS011;10524;48.132;8.518;2023-04-15T02:37:28;5.63;;;3.55;;
20725;SDS011;10524;48.132;8.518;2023-04-15T02:39:55;9.52;;;4.50;;
20725;SDS011;10524;48.132;8.518;2023-04-15T02:42:21;8.18;;;4.60;;
20725;SDS011;10524;48.132;8.518;2023-04-15T02:44:46;7.60;;;4.70;;
20725;SDS011;10524;48.132;8.518;2023-04-15T02:47:12;12.73;;;4.75;;
20725;SDS011;10524;48.132;8.518;2023-04-15T02:49:38;8.18;;;4.45;;
20725;SDS011;10524;48.132;8.518;2023-04-15T02:52:04;8.38;;;4.40;;
20725;SDS011;10524;48.132;8.518;2023-04-15T02:54:31;7.47;;;4.47;;
20725;SDS011;10524;48.132;8.518;2023-04-15T02:56:58;8.10;;;4.35;;
20725;SDS011;10524;48.132;8.518;2023-04-15T02:59:23;7.15;;;4.15;;
20725;SDS011;10524;48.132;8.518;2023-04-15T03:01:49;11.82;;;4.10;;
20725;SDS011;10524;48.132;8.518;2023-04-15T03:04:15;9.23;;;4.38;;
20725;SDS011;10524;48.132;8.518;2023-04-15T03:06:41;6.82;;;4.18;;
20725;SDS011;10524;48.132;8.518;2023-04-15T03:09:06;7.07;;;3.83;;
20725;SDS011;10524;48.132;8.518;2023-04-15T03:11:32;6.32;;;3.92;;
20725;SDS011;10524;48.132;8.518;2023-04-15T03:13:59;9.50;;;4.28;;
20725;SDS011;10524;48.132;8.518;2023-04-15T03:16:25;9.68;;;4.80;;
20725;SDS011;10524;48.132;8.518;2023-04-15T03:18:50;8.18;;;4.03;;
20725;SDS011;10524;48.132;8.518;2023-04-15T03:21:16;7.93;;;4.47;;
20725;SDS011;10524;48.132;8.518;2023-04-15T03:23:42;6.20;;;4.05;;
20725;SDS011;10524;48.132;8.518;2023-04-15T03:26:07;7.72;;;4.30;;
20725;SDS011;10524;48.132;8.518;2023-04-15T03:28:33;6.28;;;4.15;;
20725;SDS011;10524;48.132;8.518;2023-04-15T03:30:58;7.93;;;3.97;;
20725;SDS011;10524;48.132;8.518;2023-04-15T03:33:25;8.73;;;4.95;;
20725;SDS011;10524;48.132;8.518;2023-04-15T03:35:50;8.52;;;4.43;;
20725;SDS011;10524;48.132;8.518;2023-04-15T03:38:17;7.47;;;4.30;;
20725;SDS011;10524;48.132;8.518;2023-04-15T03:40:42;7.85;;;4.43;;
20725;SDS011;10524;48.132;8.518;2023-04-15T03:43:10;7.68;;;4.50;;
20725;SDS011;10524;48.132;8.518;2023-04-15T03:45:36;8.30;;;4.38;;
20725;SDS011;10524;48.132;8.518;2023-04-15T03:48:01;8.27;;;4.40;;
20725;SDS011;10524;48.132;8.518;2023-04-15T03:50:27;11.25;;;4.60;;
20725;SDS011;10524;48.132;8.518;2023-04-15T03:52:53;7.97;;;4.03;;
20725;SDS011;10524;48.132;8.518;2023-04-15T03:55:18;7.50;;;4.60;;
20725;SDS011;10524;48.132;8.518;2023-04-15T03:57:44;6.28;;;3.90;;
20725;SDS011;10524;48.132;8.518;2023-04-15T04:00:10;10.55;;;4.32;;
20725;SDS011;10524;48.132;8.518;2023-04-15T04:02:36;7.63;;;4.05;;
20725;SDS011;10524;48.132;8.518;2023-04-15T04:05:02;7.35;;;4.13;;
20725;SDS011;10524;48.132;8.518;2023-04-15T04:07:28;7.10;;;3.67;;
20725;SDS011;10524;48.132;8.518;2023-04-15T04:09:54;8.98;;;4.28;;
20725;SDS011;10524;48.132;8.518;2023-04-15T04:12:21;7.95;;;4.13;;
20725;SDS011;10524;48.132;8.518;2023-04-15T04:14:46;9.50;;;5.20;;
20725;SDS011;10524;48.132;8.518;2023-04-15T04:17:12;7.72;;;4.53;;
20725;SDS011;10524;48.132;8.518;2023-04-15T04:19:38;7.97;;;4.80;;
20725;SDS011;10524;48.132;8.518;2023-04-15T04:22:03;6.22;;;3.90;;
20725;SDS011;10524;48.132;8.518;2023-04-15T04:24:29;7.07;;;4.50;;
20725;SDS011;10524;48.132;8.518;2023-04-15T04:26:55;7.13;;;4.45;;
20725;SDS011;10524;48.132;8.518;2023-04-15T04:29:21;6.72;;;4.30;;
20725;SDS011;10524;48.132;8.518;2023-04-15T04:31:46;8.30;;;3.83;;
20725;SDS011;10524;48.132;8.518;2023-04-15T04:34:12;12.18;;;5.60;;
20725;SDS011;10524;48.132;8.518;2023-04-15T04:36:38;8.35;;;4.15;;
20725;SDS011;10524;48.132;8.518;2023-04-15T04:39:04;7.90;;;3.83;;
20725;SDS011;10524;48.132;8.518;2023-04-15T04:41:30;7.03;;;4.03;;
20725;SDS011;10524;48.132;8.518;2023-04-15T04:43:56;8.25;;;3.75;;
20725;SDS011;10524;48.132;8.518;2023-04-15T04:46:22;7.63;;;4.00;;
20725;SDS011;10524;48.132;8.518;2023-04-15T04:48:47;6.28;;;3.85;;
20725;SDS011;10524;48.132;8.518;2023-04-15T04:51:13;9.00;;;4.18;;
20725;SDS011;10524;48.132;8.518;2023-04-15T04:53:39;6.50;;;3.63;;
20725;SDS011;10524;48.132;8.518;2023-04-15T04:56:06;5.07;;;3.20;;
20725;SDS011;10524;48.132;8.518;2023-04-15T04:58:32;6.43;;;3.30;;
20725;SDS011;10524;48.132;8.518;2023-04-15T05:00:58;4.88;;;2.80;;
20725;SDS011;10524;48.132;8.518;2023-04-15T05:03:24;7.22;;;2.83;;
20725;SDS011;10524;48.132;8.518;2023-04-15T05:05:49;5.57;;;2.83;;
20725;SDS011;10524;48.132;8.518;2023-04-15T05:08:15;4.65;;;2.92;;
20725;SDS011;10524;48.132;8.518;2023-04-15T05:10:41;4.50;;;2.83;;
20725;SDS011;10524;48.132;8.518;2023-04-15T05:13:06;4.05;;;2.65;;
20725;SDS011;10524;48.132;8.518;2023-04-15T05:15:32;4.07;;;2.28;;
20725;SDS011;10524;48.132;8.518;2023-04-15T05:18:00;5.10;;;3.03;;
20725;SDS011;10524;48.132;8.518;2023-04-15T05:20:26;6.45;;;3.20;;
20725;SDS011;10524;48.132;8.518;2023-04-15T05:22:52;5.45;;;3.33;;
20725;SDS011;10524;48.132;8.518;2023-04-15T05:25:17;5.28;;;3.03;;
20725;SDS011;10524;48.132;8.518;2023-04-15T05:27:43;5.13;;;2.40;;
20725;SDS011;10524;48.132;8.518;2023-04-15T05:30:09;4.10;;;2.10;;
20725;SDS011;10524;48.132;8.518;2023-04-15T05:32:34;4.55;;;2.58;;
20725;SDS011;10524;48.132;8.518;2023-04-15T05:35:00;6.50;;;3.17;;
20725;SDS011;10524;48.132;8.518;2023-04-15T05:37:26;5.60;;;2.63;;
20725;SDS011;10524;48.132;8.518;2023-04-15T05:39:52;4.03;;;2.17;;
20725;SDS011;10524;48.132;8.518;2023-04-15T05:42:17;3.47;;;2.38;;
20725;SDS011;10524;48.132;8.518;2023-04-15T05:44:43;4.95;;;2.20;;
20725;SDS011;10524;48.132;8.518;2023-04-15T05:47:08;4.90;;;2.38;;
20725;SDS011;10524;48.132;8.518;2023-04-15T05:49:35;5.85;;;3.00;;
20725;SDS011;10524;48.132;8.518;2023-04-15T05:52:01;5.93;;;3.38;;
20725;SDS011;10524;48.132;8.518;2023-04-15T05:54:26;7.72;;;4.72;;
20725;SDS011;10524;48.132;8.518;2023-04-15T05:56:52;8.15;;;5.72;;
20725;SDS011;10524;48.132;8.518;2023-04-15T05:59:18;5.47;;;2.65;;
20725;SDS011;10524;48.132;8.518;2023-04-15T06:01:44;6.72;;;4.18;;
20725;SDS011;10524;48.132;8.518;2023-04-15T06:04:09;9.68;;;4.97;;
20725;SDS011;10524;48.132;8.518;2023-04-15T06:06:35;11.15;;;5.22;;
20725;SDS011;10524;48.132;8.518;2023-04-15T06:09:02;12.75;;;5.57;;
20725;SDS011;10524;48.132;8.518;2023-04-15T06:11:28;9.68;;;4.97;;
20725;SDS011;10524;48.132;8.518;2023-04-15T06:13:53;8.48;;;5.40;;
20725;SDS011;10524;48.132;8.518;2023-04-15T06:16:19;10.95;;;4.75;;
20725;SDS011;10524;48.132;8.518;2023-04-15T06:18:45;6.38;;;4.10;;
20725;SDS011;10524;48.132;8.518;2023-04-15T06:21:10;10.82;;;5.72;;
20725;SDS011;10524;48.132;8.518;2023-04-15T06:23:36;13.85;;;8.23;;
20725;SDS011;10524;48.132;8.518;2023-04-15T06:26:02;12.38;;;6.00;;
20725;SDS011;10524;48.132;8.518;2023-04-15T06:28:27;9.32;;;6.50;;
20725;SDS011;10524;48.132;8.518;2023-04-15T06:30:53;8.88;;;4.63;;
20725;SDS011;10524;48.132;8.518;2023-04-15T06:33:19;6.20;;;4.57;;
20725;SDS011;10524;48.132;8.518;2023-04-15T06:35:45;9.18;;;4.70;;
20725;SDS011;10524;48.132;8.518;2023-04-15T06:38:11;7.00;;;4.53;;
20725;SDS011;10524;48.132;8.518;2023-04-15T06:40:38;8.23;;;5.55;;
20725;SDS011;10524;48.132;8.518;2023-04-15T06:43:04;7.70;;;5.07;;
20725;SDS011;10524;48.132;8.518;2023-04-15T06:45:30;10.50;;;6.43;;
20725;SDS011;10524;48.132;8.518;2023-04-15T06:47:56;7.65;;;5.65;;
20725;SDS011;10524;48.132;8.518;2023-04-15T06:50:22;11.57;;;6.35;;
20725;SDS011;10524;48.132;8.518;2023-04-15T06:52:48;10.50;;;6.40;;
20725;SDS011;10524;48.132;8.518;2023-04-15T06:55:13;12.70;;;7.68;;
20725;SDS011;10524;48.132;8.518;2023-04-15T06:57:39;15.15;;;8.35;;
20725;SDS011;10524;48.132;8.518;2023-04-15T07:00:05;11.88;;;7.38;;
20725;SDS011;10524;48.132;8.518;2023-04-15T07:02:31;11.95;;;6.18;;
20725;SDS011;10524;48.132;8.518;2023-04-15T07:04:57;7.28;;;4.18;;
20725;SDS011;10524;48.132;8.518;2023-04-15T07:07:23;10.02;;;5.30;;
20725;SDS011;10524;48.132;8.518;2023-04-15T07:09:49;8.02;;;4.63;;
20725;SDS011;10524;48.132;8.518;2023-04-15T07:12:16;6.97;;;4.40;;
20725;SDS011;10524;48.132;8.518;2023-04-15T07:14:42;6.07;;;3.75;;
20725;SDS011;10524;48.132;8.518;2023-04-15T07:17:08;6.93;;;3.40;;
20725;SDS011;10524;48.132;8.518;2023-04-15T07:19:33;6.45;;;3.50;;
20725;SDS011;10524;48.132;8.518;2023-04-15T07:22:00;7.35;;;3.38;;
20725;SDS011;10524;48.132;8.518;2023-04-15T07:24:25;7.43;;;4.07;;
20725;SDS011;10524;48.132;8.518;2023-04-15T07:26:54;11.85;;;8.00;;
20725;SDS011;10524;48.132;8.518;2023-04-15T07:29:23;4.53;;;3.10;;
20725;SDS011;10524;48.132;8.518;2023-04-15T07:31:49;4.53;;;2.40;;
20725;SDS011;10524;48.132;8.518;2023-04-15T07:34:15;4.53;;;2.45;;
20725;SDS011;10524;48.132;8.518;2023-04-15T07:36:41;3.95;;;2.42;;
20725;SDS011;10524;48.132;8.518;2023-04-15T07:39:07;4.43;;;2.63;;
20725;SDS011;10524;48.132;8.518;2023-04-15T07:41:33;3.47;;;2.03;;
20725;SDS011;10524;48.132;8.518;2023-04-15T07:43:58;3.78;;;1.80;;
20725;SDS011;10524;48.132;8.518;2023-04-15T07:46:24;7.13;;;2.28;;
20725;SDS011;10524;48.132;8.518;2023-04-15T07:48:51;4.13;;;2.00;;
20725;SDS011;10524;48.132;8.518;2023-04-15T07:51:17;4.50;;;1.77;;
20725;SDS011;10524;48.132;8.518;2023-04-15T07:53:45;4.65;;;2.00;;
20725;SDS011;10524;48.132;8.518;2023-04-15T07:56:11;3.03;;;1.90;;
20725;SDS011;10524;48.132;8.518;2023-04-15T07:58:37;4.13;;;1.60;;
20725;SDS011;10524;48.132;8.518;2023-04-15T08:01:03;3.70;;;1.70;;
20725;SDS011;10524;48.132;8.518;2023-04-15T08:03:29;2.47;;;1.50;;
20725;SDS011;10524;48.132;8.518;2023-04-15T08:05:54;4.47;;;1.45;;
20725;SDS011;10524;48.132;8.518;2023-04-15T08:08:20;2.50;;;1.30;;
20725;SDS011;10524;48.132;8.518;2023-04-15T08:10:46;2.78;;;1.63;;
20725;SDS011;10524;48.132;8.518;2023-04-15T08:13:11;5.90;;;2.08;;
20725;SDS011;10524;48.132;8.518;2023-04-15T08:15:37;3.72;;;1.20;;
20725;SDS011;10524;48.132;8.518;2023-04-15T08:18:03;2.08;;;1.30;;
20725;SDS011;10524;48.132;8.518;2023-04-15T08:20:28;1.80;;;1.00;;
20725;SDS011;10524;48.132;8.518;2023-04-15T08:22:54;2.67;;;1.40;;
20725;SDS011;10524;48.132;8.518;2023-04-15T08:25:20;3.22;;;1.20;;
20725;SDS011;10524;48.132;8.518;2023-04-15T08:27:46;2.28;;;1.17;;
20725;SDS011;10524;48.132;8.518;2023-04-15T08:30:11;2.58;;;1.27;;
20725;SDS011;10524;48.132;8.518;2023-04-15T08:32:37;2.85;;;1.20;;
20725;SDS011;10524;48.132;8.518;2023-04-15T08:35:03;3.35;;;1.17;;
20725;SDS011;10524;48.132;8.518;2023-04-15T08:37:29;2.67;;;1.48;;
20725;SDS011;10524;48.132;8.518;2023-04-15T08:39:55;4.53;;;1.80;;
20725;SDS011;10524;48.132;8.518;2023-04-15T08:42:26;2.17;;;1.20;;
20725;SDS011;10524;48.132;8.518;2023-04-15T08:44:57;2.50;;;1.10;;
20725;SDS011;10524;48.132;8.518;2023-04-15T08:47:25;3.28;;;1.27;;
20725;SDS011;10524;48.132;8.518;2023-04-15T08:49:55;3.47;;;1.27;;
20725;SDS011;10524;48.132;8.518;2023-04-15T08:52:23;1.75;;;1.10;;
20725;SDS011;10524;48.132;8.518;2023-04-15T08:54:55;3.45;;;1.08;;
20725;SDS011;10524;48.132;8.518;2023-04-15T08:57:25;3.58;;;1.10;;
20725;SDS011;10524;48.132;8.518;2023-04-15T08:59:55;3.55;;;1.00;;
20725;SDS011;10524;48.132;8.518;2023-04-15T09:02:22;3.20;;;1.10;;
20725;SDS011;10524;48.132;8.518;2023-04-15T09:04:52;2.75;;;1.20;;
20725;SDS011;10524;48.132;8.518;2023-04-15T09:07:18;4.15;;;1.48;;
20725;SDS011;10524;48.132;8.518;2023-04-15T09:09:43;2.53;;;1.30;;
20725;SDS011;10524;48.132;8.518;2023-04-15T09:12:10;2.60;;;1.20;;
20725;SDS011;10524;48.132;8.518;2023-04-15T09:14:36;3.72;;;1.15;;
20725;SDS011;10524;48.132;8.518;2023-04-15T09:17:04;3.28;;;1.48;;
20725;SDS011;10524;48.132;8.518;2023-04-15T09:19:30;3.15;;;1.30;;
20725;SDS011;10524;48.132;8.518;2023-04-15T09:21:58;3.38;;;1.63;;
20725;SDS011;10524;48.132;8.518;2023-04-15T09:24:24;3.70;;;1.33;;
20725;SDS011;10524;48.132;8.518;2023-04-15T09:26:58;2.95;;;1.45;;
20725;SDS011;10524;48.132;8.518;2023-04-15T09:29:24;3.05;;;1.20;;
20725;SDS011;10524;48.132;8.518;2023-04-15T09:31:50;3.45;;;1.40;;
20725;SDS011;10524;48.132;8.518;2023-04-15T09:34:18;4.63;;;1.60;;
20725;SDS011;10524;48.132;8.518;2023-04-15T09:39:15;2.60;;;1.20;;
20725;SDS011;10524;48.132;8.518;2023-04-15T09:41:41;2.45;;;1.23;;
20725;SDS011;10524;48.132;8.518;2023-04-15T09:44:21;3.33;;;1.35;;
20725;SDS011;10524;48.132;8.518;2023-04-15T09:46:50;4.15;;;1.58;;
20725;SDS011;10524;48.132;8.518;2023-04-15T09:49:16;3.53;;;1.30;;
20725;SDS011;10524;48.132;8.518;2023-04-15T09:51:41;3.67;;;1.38;;
20725;SDS011;10524;48.132;8.518;2023-04-15T09:54:08;4.18;;;1.55;;
20725;SDS011;10524;48.132;8.518;2023-04-15T09:56:34;5.05;;;1.23;;
20725;SDS011;10524;48.132;8.518;2023-04-15T09:59:09;1.95;;;1.10;;
20725;SDS011;10524;48.132;8.518;2023-04-15T10:01:34;3.97;;;1.33;;
20725;SDS011;10524;48.132;8.518;2023-04-15T10:04:02;3.45;;;1.45;;
20725;SDS011;10524;48.132;8.518;2023-04-15T10:06:28;5.13;;;1.30;;
20725;SDS011;10524;48.132;8.518;2023-04-15T10:08:54;3.20;;;1.40;;
20725;SDS011;10524;48.132;8.518;2023-04-15T10:11:22;3.70;;;1.20;;
20725;SDS011;10524;48.132;8.518;2023-04-15T10:13:49;3.42;;;1.30;;
20725;SDS011;10524;48.132;8.518;2023-04-15T10:16:16;2.90;;;1.10;;
20725;SDS011;10524;48.132;8.518;2023-04-15T10:18:47;2.67;;;1.20;;
20725;SDS011;10524;48.132;8.518;2023-04-15T10:21:18;3.63;;;1.20;;
20725;SDS011;10524;48.132;8.518;2023-04-15T10:23:47;3.53;;;1.52;;
20725;SDS011;10524;48.132;8.518;2023-04-15T10:26:13;4.13;;;1.40;;
20725;SDS011;10524;48.132;8.518;2023-04-15T10:28:41;2.25;;;1.10;;
20725;SDS011;10524;48.132;8.518;2023-04-15T10:31:07;3.78;;;1.30;;
20725;SDS011;10524;48.132;8.518;2023-04-15T10:33:36;3.42;;;1.17;;
20725;SDS011;10524;48.132;8.518;2023-04-15T10:36:03;2.47;;;1.10;;
20725;SDS011;10524;48.132;8.518;2023-04-15T10:38:40;3.05;;;1.20;;
20725;SDS011;10524;48.132;8.518;2023-04-15T10:41:19;2.13;;;1.00;;
20725;SDS011;10524;48.132;8.518;2023-04-15T10:43:52;2.58;;;1.05;;
20725;SDS011;10524;48.132;8.518;2023-04-15T10:48:59;2.15;;;1.05;;
20725;SDS011;10524;48.132;8.518;2023-04-15T10:51:39;3.65;;;1.10;;
20725;SDS011;10524;48.132;8.518;2023-04-15T10:54:53;3.38;;;1.10;;
20725;SDS011;10524;48.132;8.518;2023-04-15T10:59:28;4.28;;;1.35;;
20725;SDS011;10524;48.132;8.518;2023-04-15T11:02:01;2.22;;;1.00;;
20725;SDS011;10524;48.132;8.518;2023-04-15T11:10:00;3.28;;;1.30;;
20725;SDS011;10524;48.132;8.518;2023-04-15T11:12:34;2.78;;;1.17;;
20725;SDS011;10524;48.132;8.518;2023-04-15T11:18:14;4.43;;;1.50;;
20725;SDS011;10524;48.132;8.518;2023-04-15T11:20:41;2.78;;;1.10;;
20725;SDS011;10524;48.132;8.518;2023-04-15T11:26:08;6.05;;;1.25;;
20725;SDS011;10524;48.132;8.518;2023-04-15T11:28:36;2.53;;;1.10;;
20725;SDS011;10524;48.132;8.518;2023-04-15T11:31:08;3.45;;;1.30;;
20725;SDS011;10524;48.132;8.518;2023-04-15T11:33:44;2.67;;;1.40;;
20725;SDS011;10524;48.132;8.518;2023-04-15T11:36:16;3.10;;;1.90;;
20725;SDS011;10524;48.132;8.518;2023-04-15T11:38:42;5.53;;;2.17;;
20725;SDS011;10524;48.132;8.518;2023-04-15T11:41:09;4.15;;;1.85;;
20725;SDS011;10524;48.132;8.518;2023-04-15T11:43:35;5.80;;;3.00;;
20725;SDS011;10524;48.132;8.518;2023-04-15T11:46:01;6.40;;;2.13;;
20725;SDS011;10524;48.132;8.518;2023-04-15T11:48:30;4.03;;;2.00;;
20725;SDS011;10524;48.132;8.518;2023-04-15T11:51:01;2.97;;;1.30;;
20725;SDS011;10524;48.132;8.518;2023-04-15T11:56:09;3.00;;;1.60;;
20725;SDS011;10524;48.132;8.518;2023-04-15T11:58:40;3.70;;;1.48;;
20725;SDS011;10524;48.132;8.518;2023-04-15T12:01:07;2.90;;;1.40;;
20725;SDS011;10524;48.132;8.518;2023-04-15T12:08:48;3.60;;;1.40;;
20725;SDS011;10524;48.132;8.518;2023-04-15T12:11:43;2.70;;;1.40;;
20725;SDS011;10524;48.132;8.518;2023-04-15T12:14:27;3.95;;;1.48;;
20725;SDS011;10524;48.132;8.518;2023-04-15T12:16:57;3.15;;;1.45;;
20725;SDS011;10524;48.132;8.518;2023-04-15T12:19:36;2.20;;;1.30;;
20725;SDS011;10524;48.132;8.518;2023-04-15T12:22:04;3.88;;;1.50;;
20725;SDS011;10524;48.132;8.518;2023-04-15T12:24:34;3.80;;;1.40;;
20725;SDS011;10524;48.132;8.518;2023-04-15T12:27:05;4.13;;;1.65;;
20725;SDS011;10524;48.132;8.518;2023-04-15T12:29:32;4.28;;;1.20;;
20725;SDS011;10524;48.132;8.518;2023-04-15T12:32:12;3.60;;;1.15;;
20725;SDS011;10524;48.132;8.518;2023-04-15T12:37:04;3.40;;;1.52;;
20725;SDS011;10524;48.132;8.518;2023-04-15T12:39:43;2.45;;;1.27;;
20725;SDS011;10524;48.132;8.518;2023-04-15T12:42:10;3.28;;;1.52;;
20725;SDS011;10524;48.132;8.518;2023-04-15T12:44:36;3.15;;;1.33;;
20725;SDS011;10524;48.132;8.518;2023-04-15T12:47:03;7.53;;;1.45;;
20725;SDS011;10524;48.132;8.518;2023-04-15T12:49:29;3.60;;;1.42;;
20725;SDS011;10524;48.132;8.518;2023-04-15T12:51:56;2.83;;;1.40;;
20725;SDS011;10524;48.132;8.518;2023-04-15T12:54:24;5.68;;;1.45;;
20725;SDS011;10524;48.132;8.518;2023-04-15T12:56:51;3.92;;;1.38;;
20725;SDS011;10524;48.132;8.518;2023-04-15T12:59:17;4.55;;;1.50;;
20725;SDS011;10524;48.132;8.518;2023-04-15T13:01:43;3.45;;;1.33;;
20725;SDS011;10524;48.132;8.518;2023-04-15T13:04:09;4.18;;;1.40;;
20725;SDS011;10524;48.132;8.518;2023-04-15T13:06:35;4.80;;;1.25;;
20725;SDS011;10524;48.132;8.518;2023-04-15T13:09:02;4.35;;;1.40;;
20725;SDS011;10524;48.132;8.518;2023-04-15T13:11:28;4.05;;;1.67;;
20725;SDS011;10524;48.132;8.518;2023-04-15T13:16:30;4.63;;;1.48;;
20725;SDS011;10524;48.132;8.518;2023-04-15T13:18:57;5.40;;;1.70;;
20725;SDS011;10524;48.132;8.518;2023-04-15T13:21:24;2.67;;;1.30;;
20725;SDS011;10524;48.132;8.518;2023-04-15T13:23:49;2.33;;;1.10;;
20725;SDS011;10524;48.132;8.518;2023-04-15T13:26:16;2.55;;;1.50;;
20725;SDS011;10524;48.132;8.518;2023-04-15T13:28:41;3.97;;;1.50;;
20725;SDS011;10524;48.132;8.518;2023-04-15T13:31:07;4.45;;;1.70;;
20725;SDS011;10524;48.132;8.518;2023-04-15T13:33:33;4.80;;;1.38;;
20725;SDS011;10524;48.132;8.518;2023-04-15T13:35:58;3.65;;;1.70;;
20725;SDS011;10524;48.132;8.518;2023-04-15T13:38:24;4.25;;;1.90;;
20725;SDS011;10524;48.132;8.518;2023-04-15T13:40:50;6.20;;;2.60;;
20725;SDS011;10524;48.132;8.518;2023-04-15T13:43:16;9.77;;;2.40;;
20725;SDS011;10524;48.132;8.518;2023-04-15T13:45:42;4.80;;;2.40;;
20725;SDS011;10524;48.132;8.518;2023-04-15T13:48:08;3.83;;;1.80;;
20725;SDS011;10524;48.132;8.518;2023-04-15T13:50:34;5.50;;;1.80;;
20725;SDS011;10524;48.132;8.518;2023-04-15T13:52:59;4.25;;;2.50;;
20725;SDS011;10524;48.132;8.518;2023-04-15T13:55:26;4.60;;;2.28;;
20725;SDS011;10524;48.132;8.518;2023-04-15T13:57:51;3.25;;;2.17;;
20725;SDS011;10524;48.132;8.518;2023-04-15T14:00:17;2.33;;;1.23;;
20725;SDS011;10524;48.132;8.518;2023-04-15T14:02:43;2.85;;;1.80;;
20725;SDS011;10524;48.132;8.518;2023-04-15T14:05:09;3.08;;;1.80;;
20725;SDS011;10524;48.132;8.518;2023-04-15T14:07:35;5.53;;;1.80;;
20725;SDS011;10524;48.132;8.518;2023-04-15T14:10:01;5.68;;;2.60;;
20725;SDS011;10524;48.132;8.518;2023-04-15T14:12:27;7.55;;;4.00;;
20725;SDS011;10524;48.132;8.518;2023-04-15T14:14:53;3.72;;;1.25;;
20725;SDS011;10524;48.132;8.518;2023-04-15T14:17:18;4.80;;;1.58;;
20725;SDS011;10524;48.132;8.518;2023-04-15T14:19:44;4.55;;;2.25;;
20725;SDS011;10524;48.132;8.518;2023-04-15T14:22:10;3.25;;;1.80;;
20725;SDS011;10524;48.132;8.518;2023-04-15T14:24:35;4.88;;;2.20;;
20725;SDS011;10524;48.132;8.518;2023-04-15T14:27:01;4.15;;;1.90;;
20725;SDS011;10524;48.132;8.518;2023-04-15T14:29:27;2.65;;;1.67;;
20725;SDS011;10524;48.132;8.518;2023-04-15T14:31:53;3.03;;;1.65;;
20725;SDS011;10524;48.132;8.518;2023-04-15T14:34:21;2.47;;;1.50;;
20725;SDS011;10524;48.132;8.518;2023-04-15T14:36:49;3.47;;;1.60;;
20725;SDS011;10524;48.132;8.518;2023-04-15T14:39:15;2.97;;;1.60;;
20725;SDS011;10524;48.132;8.518;2023-04-15T14:41:41;3.63;;;1.60;;
20725;SDS011;10524;48.132;8.518;2023-04-15T14:44:06;4.57;;;1.65;;
20725;SDS011;10524;48.132;8.518;2023-04-15T14:46:33;4.05;;;1.67;;
20725;SDS011;10524;48.132;8.518;2023-04-15T14:48:59;9.55;;;5.07;;
20725;SDS011;10524;48.132;8.518;2023-04-15T14:51:25;6.40;;;5.15;;
20725;SDS011;10524;48.132;8.518;2023-04-15T14:53:50;2.80;;;1.45;;
20725;SDS011;10524;48.132;8.518;2023-04-15T14:56:16;3.25;;;1.40;;
20725;SDS011;10524;48.132;8.518;2023-04-15T14:58:42;3.28;;;1.73;;
20725;SDS011;10524;48.132;8.518;2023-04-15T15:01:07;4.97;;;1.48;;
20725;SDS011;10524;48.132;8.518;2023-04-15T15:03:33;3.42;;;1.65;;
20725;SDS011;10524;48.132;8.518;2023-04-15T15:05:59;3.47;;;1.60;;
20725;SDS011;10524;48.132;8.518;2023-04-15T15:08:25;5.22;;;2.72;;
20725;SDS011;10524;48.132;8.518;2023-04-15T15:10:51;4.07;;;1.38;;
20725;SDS011;10524;48.132;8.518;2023-04-15T15:13:16;3.35;;;1.40;;
20725;SDS011;10524;48.132;8.518;2023-04-15T15:15:43;3.28;;;1.35;;